Time;durP1;ratioP1;P1;durP2;ratioP2;P2;SDS_P1;SDS_P2;PMS_P1;PMS_P2;Temp;Humidity;BMP_temperature;BMP_pressure;BME280_temperature;BME280_humidity;BME280_pressure;Samples;Min_cycle;Max_cycle;Signal;HPM_P1;HPM_P2
2022/06/03 00:02:01;;;;;;;7.00;6.40;;;;;;;23.33;53.42;99447.78;5032039;28;20095;-88
2022/06/03 00:04:43;;;;;;;8.55;6.60;;;;;;;23.99;53.45;99554.00;5037111;28;20033;-87
2022/06/03 00:07:20;;;;;;;9.25;7.07;;;;;;;24.17;53.44;99576.16;5042656;28;20021;-87
2022/06/03 00:10:23;;;;;;;8.15;6.22;;;;;;;24.19;53.16;99563.22;5030145;28;20029;-88
2022/06/03 00:12:57;;;;;;;7.53;6.68;;;;;;;23.88;53.21;99528.06;5030320;28;20036;-88
2022/06/03 00:15:50;;;;;;;8.85;6.13;;;;;;;24.24;53.30;99563.22;5030378;28;20052;-88
2022/06/03 00:18:37;;;;;;;8.73;6.03;;;;;;;24.27;53.08;99555.44;5030300;28;20032;-88
2022/06/03 00:21:07;;;;;;;8.43;6.68;;;;;;;24.18;53.05;99550.78;5031608;28;20037;-87
2022/06/03 00:23:54;;;;;;;8.10;6.35;;;;;;;24.25;53.20;99554.84;5031719;28;20513;-88
2022/06/03 00:26:53;;;;;;;6.97;5.80;;;;;;;24.01;53.08;99505.97;5030469;28;20414;-88
2022/06/03 00:29:45;;;;;;;15.00;6.60;;;;;;;24.36;52.93;99555.72;5030299;28;20661;-87
2022/06/03 00:32:32;;;;;;;8.90;5.97;;;;;;;24.43;53.03;99558.16;5030391;28;20108;-88
2022/06/03 00:35:07;;;;;;;9.18;6.10;;;;;;;24.47;52.60;99556.53;5030124;28;20025;-88
2022/06/03 00:37:56;;;;;;;8.65;6.22;;;;;;;24.53;52.74;99558.19;5030822;28;20854;-88
2022/06/03 00:40:21;;;;;;;8.73;5.85;;;;;;;24.53;52.42;99556.28;5044736;28;20038;-87
2022/06/03 00:42:56;;;;;;;8.52;6.00;;;;;;;24.54;52.43;99547.13;5044429;28;20029;-87
2022/06/03 00:45:55;;;;;;;6.47;5.75;;;;;;;24.52;52.38;99556.53;5035288;28;20387;-87
2022/06/03 00:48:36;;;;;;;7.63;5.70;;;;;;;24.53;52.51;99550.09;5031383;28;20021;-88
2022/06/03 00:51:13;;;;;;;10.33;6.50;;;;;;;24.58;52.00;99555.50;5030051;28;20633;-87
2022/06/03 00:54:06;;;;;;;8.85;5.55;;;;;;;24.66;52.13;99554.94;5031131;28;20025;-87
2022/06/03 00:56:59;;;;;;;8.32;5.28;;;;;;;24.38;51.81;99518.47;5031356;28;20037;-87
2022/06/03 00:59:56;;;;;;;9.38;5.45;;;;;;;24.72;51.76;99551.16;5031177;28;20057;-87
2022/06/03 01:02:43;;;;;;;7.18;5.15;;;;;;;24.75;51.83;99556.03;5031072;28;20045;-87
2022/06/03 01:05:08;;;;;;;7.07;5.30;;;;;;;24.78;51.65;99554.69;5029928;28;20021;-87
2022/06/03 01:07:57;;;;;;;6.38;4.95;;;;;;;24.75;51.41;99544.41;5030001;28;20080;-87
2022/06/03 01:10:51;;;;;;;8.60;5.63;;;;;;;24.84;51.50;99542.78;5030936;28;20022;-87
2022/06/03 01:13:39;;;;;;;5.68;4.90;;;;;;;24.81;51.32;99543.34;5034986;28;20024;-87
2022/06/03 01:16:29;;;;;;;6.15;5.43;;;;;;;24.77;51.56;99542.25;5033607;28;20028;-87
2022/06/03 01:19:33;;;;;;;7.97;5.53;;;;;;;24.77;51.38;99534.16;5032956;28;20113;-87
2022/06/03 01:22:17;;;;;;;5.75;5.13;;;;;;;24.77;51.63;99534.16;5025530;28;20103;-86
2022/06/03 01:24:59;;;;;;;8.20;5.50;;;;;;;24.77;51.55;99521.47;5033225;28;20029;-85
2022/06/03 01:27:45;;;;;;;6.15;5.55;;;;;;;24.74;51.65;99523.91;5033289;28;20025;-87
2022/06/03 01:30:21;;;;;;;8.02;5.65;;;;;;;24.62;51.91;99510.66;5034434;28;20025;-86
2022/06/03 01:33:26;;;;;;;6.45;4.97;;;;;;;24.70;52.18;99529.03;5034498;28;20025;-88
2022/06/03 01:36:29;;;;;;;5.50;4.97;;;;;;;24.75;51.97;99539.00;5033024;28;20022;-88
2022/06/03 01:39:13;;;;;;;5.75;5.10;;;;;;;24.74;51.90;99535.50;5033181;28;20029;-87
2022/06/03 01:41:50;;;;;;;8.18;5.68;;;;;;;24.75;51.68;99533.63;5034232;28;20028;-88
2022/06/03 01:44:31;;;;;;;9.25;5.70;;;;;;;24.76;51.99;99527.94;5032783;28;20102;-87
2022/06/03 01:47:49;;;;;;;9.57;5.35;;;;;;;24.60;51.84;99519.03;5032986;28;20025;-87
2022/06/03 01:50:33;;;;;;;6.80;5.38;;;;;;;24.77;51.87;99532.25;4992567;28;20058;-87
2022/06/03 01:53:10;;;;;;;7.57;4.93;;;;;;;24.80;51.84;99541.72;5034285;28;20033;-87
2022/06/03 01:56:24;;;;;;;7.72;4.85;;;;;;;24.77;51.42;99537.66;5033878;28;20068;-87
2022/06/03 01:59:13;;;;;;;5.10;4.60;;;;;;;24.49;51.46;99513.88;5034022;28;20447;-87
2022/06/03 02:02:13;;;;;;;7.82;4.78;;;;;;;24.70;51.40;99547.94;5032588;28;20022;-87
2022/06/03 02:05:04;;;;;;;6.72;4.85;;;;;;;24.72;51.15;99545.78;5032358;28;20112;-87
2022/06/03 02:07:35;;;;;;;7.93;4.93;;;;;;;24.74;51.00;99545.50;5033675;28;20545;-87
2022/06/03 02:10:16;;;;;;;;;;;;;;;24.60;51.29;99545.22;5032835;28;20021;-87
2022/06/03 02:13:06;;;;;;;7.70;4.65;;;;;;;24.73;50.86;99544.69;5032200;28;19909;-87
2022/06/03 02:15:59;;;;;;;8.32;5.03;;;;;;;24.80;50.57;99550.63;5033540;28;20383;-88
2022/06/03 02:18:24;;;;;;;8.20;4.70;;;;;;;24.85;50.67;99555.22;5033437;28;20018;-87
2022/06/03 02:21:20;;;;;;;8.32;5.00;;;;;;;24.86;50.79;99554.13;5032277;28;20059;-87
2022/06/03 02:24:13;;;;;;;8.43;5.45;;;;;;;24.85;50.65;99561.41;5032943;28;20467;-88
2022/06/03 02:27:32;;;;;;;7.10;4.80;;;;;;;24.70;50.66;99545.22;5032168;28;20561;-87
2022/06/03 02:30:26;;;;;;;6.40;5.60;;;;;;;24.75;51.03;99556.03;5016824;28;20061;-88
2022/06/03 02:33:32;;;;;;;9.02;5.60;;;;;;;24.55;50.99;99543.34;5032016;28;20052;-87
2022/06/03 02:36:34;;;;;;;7.30;5.30;;;;;;;24.69;50.81;99574.13;5031169;28;20034;-86
2022/06/03 02:39:26;;;;;;;7.45;5.53;;;;;;;24.46;51.00;99549.50;5033335;28;20045;-87
2022/06/03 02:42:17;;;;;;;8.50;5.10;;;;;;;24.57;51.28;99560.06;5031705;28;20091;-87
2022/06/03 02:45:04;;;;;;;9.18;5.30;;;;;;;24.41;50.99;99561.13;5031711;28;20033;-88
2022/06/03 02:47:56;;;;;;;8.65;5.20;;;;;;;24.62;51.21;99578.16;5031772;28;20033;-88
2022/06/03 02:50:50;;;;;;;6.30;5.70;;;;;;;24.55;50.84;99580.31;5031684;28;20442;-87
2022/06/03 02:53:48;;;;;;;7.32;5.90;;;;;;;24.51;50.94;99590.00;5031468;28;20026;-87
2022/06/03 02:56:32;;;;;;;7.22;5.25;;;;;;;24.53;51.02;99590.56;5017569;28;20065;-87
2022/06/03 02:59:17;;;;;;;7.25;5.47;;;;;;;24.50;50.96;99588.38;5032989;28;20136;-87
2022/06/03 03:01:46;;;;;;;6.78;5.43;;;;;;;24.45;51.24;99591.06;5031537;28;20033;-87
2022/06/03 03:04:17;;;;;;;6.43;5.72;;;;;;;24.42;51.11;99597.81;5032658;28;20064;-87
2022/06/03 03:06:48;;;;;;;7.22;5.95;;;;;;;24.37;51.36;99601.31;5031335;28;20047;-87
2022/06/03 03:09:33;;;;;;;;;;;;;;;24.16;51.88;99604.22;5031697;28;20494;-87
2022/06/03 03:12:11;;;;;;;9.40;6.65;;;;;;;24.22;51.52;99609.34;5031195;28;19909;-87
2022/06/03 03:14:48;;;;;;;8.25;5.72;;;;;;;24.24;51.61;99617.19;5031092;28;20481;-87
2022/06/03 03:17:48;;;;;;;7.78;6.00;;;;;;;24.25;51.53;99618.81;5030934;28;20116;-87
2022/06/03 03:20:50;;;;;;;9.63;6.07;;;;;;;24.17;51.48;99619.31;5032286;28;20034;-88
2022/06/03 03:23:25;;;;;;;9.27;6.35;;;;;;;24.15;51.73;99621.47;5031080;28;20036;-87
2022/06/03 03:26:14;;;;;;;8.48;6.63;;;;;;;24.18;51.54;99631.72;5031025;28;20490;-87
2022/06/03 03:28:54;;;;;;;9.38;6.03;;;;;;;24.17;51.49;99630.91;5032272;28;20030;-87
2022/06/03 03:31:49;;;;;;;12.60;6.57;;;;;;;23.86;51.54;99591.44;5032603;28;20057;-87
2022/06/03 03:34:23;;;;;;;6.53;5.75;;;;;;;24.23;51.26;99646.03;5029943;28;20083;-88
2022/06/03 03:37:07;;;;;;;10.73;6.20;;;;;;;24.27;51.06;99652.56;5032010;28;20022;-87
2022/06/03 03:40:08;;;;;;;7.75;5.45;;;;;;;24.24;50.92;99644.97;5032391;28;20502;-87
2022/06/03 03:42:48;;;;;;;7.78;5.68;;;;;;;23.94;50.97;99599.81;5032300;28;20038;-87
2022/06/03 03:45:32;;;;;;;10.65;5.78;;;;;;;24.31;50.86;99648.25;5030984;28;20029;-87
2022/06/03 03:48:35;;;;;;;9.10;5.03;;;;;;;24.39;50.36;99646.94;5030722;28;20481;-87
2022/06/03 03:51:03;;;;;;;8.10;5.45;;;;;;;24.39;50.45;99649.63;5031802;28;20031;-87
2022/06/03 03:53:38;;;;;;;7.60;5.40;;;;;;;24.44;50.17;99646.94;5030796;28;20116;-87
2022/06/03 03:56:31;;;;;;;7.38;5.30;;;;;;;24.42;50.25;99648.28;5030549;28;20046;-87
2022/06/03 03:59:07;;;;;;;8.38;5.35;;;;;;;24.20;50.38;99640.38;5032347;28;20029;-86
2022/06/03 04:01:53;;;;;;;7.15;4.72;;;;;;;24.49;50.35;99657.75;5045246;28;20017;-87
2022/06/03 04:04:31;;;;;;;9.05;4.93;;;;;;;24.53;50.22;99660.75;5035460;28;20053;-87
2022/06/03 04:07:19;;;;;;;7.22;5.20;;;;;;;24.57;50.11;99656.44;5034902;28;20021;-87
2022/06/03 04:10:09;;;;;;;9.50;4.90;;;;;;;24.55;50.44;99656.72;5028777;28;20037;-87
2022/06/03 04:13:08;;;;;;;6.35;5.07;;;;;;;24.56;50.45;99652.13;5034182;28;20040;-87
2022/06/03 04:15:58;;;;;;;8.02;4.82;;;;;;;24.56;50.06;99660.22;5031701;28;20026;-87
2022/06/03 04:18:42;;;;;;;7.63;4.88;;;;;;;24.60;50.13;99659.44;5030522;28;20025;-87
2022/06/03 04:21:34;;;;;;;7.93;4.95;;;;;;;24.61;50.55;99657.53;5031326;28;20029;-87
2022/06/03 04:24:18;;;;;;;7.63;4.80;;;;;;;24.60;50.17;99658.63;5030027;28;20025;-87
2022/06/03 04:27:21;;;;;;;8.85;5.20;;;;;;;24.60;50.22;99655.91;5030248;28;20044;-87
2022/06/03 04:30:17;;;;;;;10.63;5.07;;;;;;;24.62;50.46;99661.84;5031432;28;20031;-87
2022/06/03 04:32:55;;;;;;;6.03;4.78;;;;;;;24.64;50.14;99668.63;5031328;28;20159;-87
2022/06/03 04:35:55;;;;;;;7.75;4.57;;;;;;;24.66;50.65;99669.16;5030051;28;20537;-87
2022/06/03 04:38:39;;;;;;;8.65;5.30;;;;;;;24.66;50.60;99676.44;5030039;28;20079;-87
2022/06/03 04:41:56;;;;;;;7.72;5.07;;;;;;;24.37;51.12;99624.78;5030149;28;20430;-87
2022/06/03 04:44:30;;;;;;;6.15;5.05;;;;;;;24.76;50.38;99670.25;5014315;28;20029;-87
2022/06/03 04:46:59;;;;;;;6.93;4.90;;;;;;;24.77;50.61;99672.69;5035088;28;20021;-87
2022/06/03 04:49:24;;;;;;;5.95;4.32;;;;;;;24.84;50.58;99670.53;5033569;28;20032;-87
2022/06/03 04:52:27;;;;;;;8.75;4.90;;;;;;;24.87;50.56;99678.09;5034941;28;20029;-87
2022/06/03 04:55:27;;;;;;;10.63;5.20;;;;;;;24.71;50.39;99635.94;5033592;28;20474;-87
2022/06/03 04:58:41;;;;;;;8.52;5.07;;;;;;;24.88;50.46;99673.50;5034933;28;20034;-87
2022/06/03 05:01:45;;;;;;;9.93;4.57;;;;;;;24.90;50.50;99672.16;5033627;28;20038;-87
2022/06/03 05:04:28;;;;;;;7.47;4.55;;;;;;;24.97;50.56;99680.00;5034851;28;20564;-87
2022/06/03 05:07:12;;;;;;;6.93;4.65;;;;;;;25.01;50.43;99671.13;5034756;28;20021;-87
2022/06/03 05:10:15;;;;;;;6.32;4.63;;;;;;;25.12;50.30;99677.34;5033497;28;20025;-87
2022/06/03 05:13:01;;;;;;;9.02;4.82;;;;;;;25.15;50.07;99676.78;5034915;28;20025;-87
2022/06/03 05:15:42;;;;;;;9.00;5.05;;;;;;;25.23;49.96;99668.13;5035080;28;20017;-87
2022/06/03 05:18:24;;;;;;;8.55;4.30;;;;;;;24.90;49.94;99615.44;5033703;28;20457;-87
2022/06/03 05:21:20;;;;;;;6.43;4.88;;;;;;;25.34;49.49;99683.28;5033645;28;20489;-87
2022/06/03 05:23:59;;;;;;;6.30;4.57;;;;;;;25.36;49.67;99671.41;5033917;28;20029;-87
2022/06/03 05:26:43;;;;;;;7.07;4.57;;;;;;;25.42;49.73;99678.44;5033424;28;20048;-87
2022/06/03 05:29:22;;;;;;;5.55;4.60;;;;;;;24.86;49.53;99594.63;5033322;28;20505;-87
2022/06/03 05:32:15;;;;;;;8.90;4.80;;;;;;;25.55;49.19;99673.25;5033434;28;20116;-87
2022/06/03 05:34:47;;;;;;;6.60;4.00;;;;;;;24.80;49.36;99561.44;5034415;28;20033;-88
2022/06/03 05:37:35;;;;;;;5.80;4.43;;;;;;;25.25;49.17;99606.53;5044494;28;20504;-87
2022/06/03 05:40:05;;;;;;;7.35;5.28;;;;;;;25.71;48.94;99679.47;5051630;28;20029;-87
2022/06/03 05:42:41;;;;;;;6.50;5.40;;;;;;;25.83;48.97;99677.28;5036870;28;20103;-87
2022/06/03 05:45:44;;;;;;;10.40;5.00;;;;;;;25.89;48.91;99673.47;5033116;28;20498;-87
2022/06/03 05:48:19;;;;;;;7.07;4.63;;;;;;;25.79;48.84;99662.69;5035557;28;20049;-87
2022/06/03 05:51:00;;;;;;;9.80;4.90;;;;;;;25.40;48.55;99592.19;5045033;28;20029;-87
2022/06/03 05:53:28;;;;;;;5.40;4.78;;;;;;;25.96;48.42;99679.41;5044179;28;20033;-86
2022/06/03 05:56:18;;;;;;;5.70;4.93;;;;;;;25.98;48.62;99684.53;5042088;28;20421;-88
2022/06/03 05:58:52;;;;;;;9.70;4.97;;;;;;;26.03;48.77;99684.56;5052774;28;20029;-86
2022/06/03 06:01:44;;;;;;;6.30;4.78;;;;;;;26.06;48.49;99680.50;5032619;28;20558;-86
2022/06/03 06:04:18;;;;;;;8.10;5.10;;;;;;;26.10;48.75;99676.94;5032801;28;20037;-87
2022/06/03 06:07:26;;;;;;;7.65;4.80;;;;;;;26.14;48.59;99675.31;5032610;28;20505;-87
2022/06/03 06:10:04;;;;;;;6.63;4.88;;;;;;;26.19;48.47;99675.28;5003943;28;20495;-87
2022/06/03 06:12:51;;;;;;;8.40;5.15;;;;;;;26.29;48.66;99674.44;5036445;28;20748;-87
2022/06/03 06:15:43;;;;;;;10.90;5.68;;;;;;;25.55;48.45;99553.50;5042666;28;20036;-87
2022/06/03 06:18:20;;;;;;;6.82;4.80;;;;;;;25.62;47.95;99562.94;5051689;28;20029;-87
2022/06/03 06:21:26;;;;;;;9.65;5.13;;;;;;;26.36;48.05;99683.09;5050190;28;20056;-84
2022/06/03 06:24:05;;;;;;;7.30;5.03;;;;;;;26.42;48.20;99689.28;5030848;28;20065;-86
2022/06/03 06:27:28;;;;;;;9.38;4.97;;;;;;;25.68;48.48;99584.56;5042077;28;20112;-85
2022/06/03 06:30:03;;;;;;;8.57;5.10;;;;;;;26.47;47.75;99687.38;4992085;28;20113;-85
2022/06/03 06:32:36;;;;;;;10.23;6.18;;;;;;;26.52;47.61;99681.91;4991650;28;20034;-85
2022/06/03 06:35:23;;;;;;;7.80;5.63;;;;;;;26.60;47.23;99688.66;5029951;28;20424;-85
2022/06/03 06:38:01;;;;;;;8.43;5.32;;;;;;;26.66;47.47;99692.13;5051600;28;20468;-85
2022/06/03 06:40:48;;;;;;;7.72;5.07;;;;;;;26.72;47.08;99685.59;5038944;28;20119;-85
2022/06/03 06:43:56;;;;;;;9.52;5.10;;;;;;;26.78;47.31;99690.72;5038936;28;20110;-86
2022/06/03 06:46:46;;;;;;;8.60;5.55;;;;;;;26.83;46.92;99693.41;5053300;28;20033;-87
2022/06/03 06:49:41;;;;;;;8.77;5.47;;;;;;;26.57;46.50;99657.53;5043642;28;20029;-87
2022/06/03 06:52:27;;;;;;;7.18;5.45;;;;;;;26.98;46.75;99689.00;5054941;28;20043;-87
2022/06/03 06:55:33;;;;;;;9.20;5.85;;;;;;;27.10;46.63;99689.44;5051075;28;20048;-86
2022/06/03 06:58:06;;;;;;;8.68;7.03;;;;;;;27.25;46.43;99696.63;5022075;28;20032;-86
2022/06/03 07:00:37;;;;;;;8.45;6.07;;;;;;;27.27;46.11;99681.72;5040778;28;20029;-86
2022/06/03 07:03:22;;;;;;;7.70;5.43;;;;;;;27.46;46.51;99681.81;5033134;28;20033;-86
2022/06/03 07:06:01;;;;;;;9.98;5.95;;;;;;;27.21;46.57;99639.47;5039346;28;20029;-86
2022/06/03 07:08:36;;;;;;;8.93;5.07;;;;;;;27.60;45.98;99690.91;5046368;28;20083;-86
2022/06/03 07:11:14;;;;;;;7.78;6.32;;;;;;;27.36;46.23;99643.94;5030875;28;20480;-86
2022/06/03 07:13:54;;;;;;;7.53;6.65;;;;;;;27.37;46.10;99657.22;5046276;28;20029;-87
2022/06/03 07:19:50;;;;;;;9.77;6.43;;;;;;;27.35;45.45;99621.44;5038643;28;20122;-86
2022/06/03 07:22:48;;;;;;;7.65;5.78;;;;;;;27.67;45.66;99674.34;5042051;28;20036;-87
2022/06/03 07:25:36;;;;;;;9.75;6.75;;;;;;;27.93;45.65;99700.09;5036905;28;20124;-87
2022/06/03 07:28:13;;;;;;;8.43;6.15;;;;;;;26.65;45.67;99479.25;5036505;28;20017;-87
2022/06/03 07:31:08;;;;;;;7.40;5.60;;;;;;;28.03;45.78;99705.41;5030576;28;20116;-86
2022/06/03 07:34:08;;;;;;;8.80;5.75;;;;;;;27.83;45.48;99668.44;5036840;28;20028;-87
2022/06/03 07:36:46;;;;;;;9.65;7.40;;;;;;;27.81;45.70;99650.84;5026525;28;20675;-87
2022/06/03 07:39:39;;;;;;;7.72;6.82;;;;;;;27.66;45.85;99599.47;5047544;28;20483;-86
2022/06/03 07:42:30;;;;;;;7.00;5.82;;;;;;;28.28;45.93;99685.34;5050666;28;20029;-87
2022/06/03 07:44:55;;;;;;;9.77;6.55;;;;;;;28.33;45.74;99677.13;5043506;28;20025;-87
2022/06/03 07:47:24;;;;;;;10.73;6.57;;;;;;;28.01;45.56;99614.50;5037277;28;20033;-86
2022/06/03 07:49:59;;;;;;;7.07;6.25;;;;;;;27.87;45.28;99600.84;5038031;28;20036;-86
2022/06/03 07:52:43;;;;;;;8.57;7.07;;;;;;;28.57;45.45;99674.34;5038270;28;20029;-86
2022/06/03 07:55:16;;;;;;;9.57;6.60;;;;;;;28.35;45.20;99630.66;5050750;28;20074;-86
2022/06/03 07:57:49;;;;;;;8.25;6.35;;;;;;;28.76;44.98;99680.59;5031360;28;20025;-86
2022/06/03 08:00:18;;;;;;;11.45;6.43;;;;;;;28.84;44.98;99678.34;5030331;28;20034;-87
2022/06/03 08:02:44;;;;;;;10.82;7.28;;;;;;;28.96;45.25;99684.13;5065559;28;20500;-85
2022/06/03 08:05:16;;;;;;;8.65;6.43;;;;;;;28.52;44.89;99605.72;5070520;28;20078;-86
2022/06/03 08:13:18;;;;;;;7.90;5.80;;;;;;;29.03;44.17;99633.75;5050776;28;20090;-84
2022/06/03 08:15:56;;;;;;;10.45;6.47;;;;;;;28.96;44.24;99622.41;5064197;28;20036;-85
2022/06/03 08:18:25;;;;;;;11.82;6.35;;;;;;;29.30;44.46;99664.84;5046894;28;20036;-85
2022/06/03 08:20:54;;;;;;;10.43;6.35;;;;;;;29.40;43.94;99675.53;5033491;28;20592;-86
2022/06/03 08:23:22;;;;;;;9.68;6.28;;;;;;;29.13;43.55;99616.44;5034856;28;20026;-86
2022/06/03 08:25:58;;;;;;;8.80;6.55;;;;;;;29.58;43.20;99671.97;5050765;28;20063;-85
2022/06/03 08:28:27;;;;;;;8.27;6.32;;;;;;;29.02;43.23;99598.69;5040958;28;20095;-86
2022/06/03 08:30:56;;;;;;;10.32;6.22;;;;;;;29.61;43.13;99679.53;5042314;28;20067;-85
2022/06/03 08:33:37;;;;;;;8.15;6.07;;;;;;;29.64;42.96;99681.66;5038273;28;20048;-86
2022/06/03 08:36:03;;;;;;;8.52;6.15;;;;;;;29.45;43.00;99620.25;5043747;28;20099;-85
2022/06/03 08:38:36;;;;;;;8.23;7.05;;;;;;;29.72;42.87;99636.59;5045800;28;20121;-86
2022/06/03 08:41:01;;;;;;;11.27;6.28;;;;;;;30.15;42.21;99669.00;5043378;28;20080;-86
2022/06/03 08:43:29;;;;;;;7.70;6.65;;;;;;;30.04;42.65;99669.22;5046052;28;21693;-86
2022/06/03 08:45:58;;;;;;;9.98;5.85;;;;;;;29.91;42.84;99671.91;5039032;28;20071;-85
2022/06/03 08:48:35;;;;;;;12.98;6.45;;;;;;;29.98;42.70;99667.69;5032163;28;20033;-85
2022/06/03 08:51:07;;;;;;;5.88;5.18;;;;;;;29.78;42.14;99607.41;5045332;28;20028;-86
2022/06/03 08:54:00;;;;;;;11.75;5.80;;;;;;;30.41;40.21;99658.34;5032782;28;20033;-86
2022/06/03 08:56:31;;;;;;;9.70;5.40;;;;;;;29.96;38.58;99574.59;5049827;28;20506;-84
2022/06/03 08:59:04;;;;;;;9.07;5.75;;;;;;;30.54;38.73;99635.75;5048366;28;20048;-86
2022/06/03 09:01:41;;;;;;;8.10;5.38;;;;;;;30.92;37.87;99660.78;5040237;28;20401;-86
2022/06/03 09:04:20;;;;;;;5.85;4.57;;;;;;;30.72;37.47;99610.28;5041134;28;20033;-86
2022/06/03 09:06:54;;;;;;;5.63;4.82;;;;;;;31.16;36.93;99661.28;5033988;28;20025;-86
2022/06/03 09:09:43;;;;;;;6.97;6.03;;;;;;;31.36;36.57;99659.19;5032466;28;20113;-86
2022/06/03 09:12:28;;;;;;;7.18;4.95;;;;;;;31.21;35.12;99608.53;5029234;28;20029;-85
2022/06/03 09:15:00;;;;;;;6.47;4.97;;;;;;;31.42;35.58;99636.09;5029041;28;20036;-84
2022/06/03 09:17:35;;;;;;;10.13;7.88;;;;;;;30.97;35.72;99562.47;5029782;28;20070;-84
2022/06/03 09:20:07;;;;;;;9.20;6.05;;;;;;;31.26;35.23;99586.59;5038323;28;20029;-86
2022/06/03 09:22:33;;;;;;;7.47;5.18;;;;;;;31.21;35.19;99541.16;5033523;28;20470;-84
2022/06/03 09:25:01;;;;;;;7.18;5.30;;;;;;;32.02;34.86;99630.09;5030291;28;20085;-85
2022/06/03 09:27:29;;;;;;;10.32;7.25;;;;;;;32.31;34.37;99684.97;5038466;28;20100;-86
2022/06/03 09:29:58;;;;;;;7.35;4.78;;;;;;;32.22;33.93;99634.94;5060161;28;20049;-85
2022/06/03 09:32:26;;;;;;;10.13;6.40;;;;;;;32.01;34.03;99615.63;5031009;28;20552;-85
2022/06/03 09:35:01;;;;;;;8.57;5.00;;;;;;;32.18;33.75;99614.84;5052472;28;20021;-85
2022/06/03 09:37:35;;;;;;;4.57;4.15;;;;;;;32.75;33.24;99678.47;5036685;28;20490;-83
2022/06/03 09:40:03;;;;;;;9.20;6.10;;;;;;;32.87;33.30;99685.25;5036239;28;20026;-84
2022/06/03 09:42:31;;;;;;;8.75;4.70;;;;;;;33.00;32.71;99687.00;5048874;28;20025;-84
2022/06/03 09:45:01;;;;;;;7.47;6.35;;;;;;;33.05;32.43;99684.91;5041664;28;20330;-85
2022/06/03 09:47:28;;;;;;;6.82;5.07;;;;;;;32.68;32.72;99688.25;5033211;28;20017;-84
2022/06/03 09:49:54;;;;;;;9.73;5.70;;;;;;;31.79;33.85;99585.69;5049857;28;20032;-85
2022/06/03 09:52:23;;;;;;;7.32;5.28;;;;;;;32.21;34.00;99690.72;5036649;28;20038;-86
2022/06/03 09:54:50;;;;;;;5.95;4.75;;;;;;;30.86;33.78;99536.59;5031001;28;20077;-85
2022/06/03 09:57:33;;;;;;;9.15;5.40;;;;;;;32.14;34.03;99663.88;5034157;28;20041;-85
2022/06/03 10:00:15;;;;;;;6.47;4.85;;;;;;;32.41;33.00;99626.47;5049838;28;20033;-84
2022/06/03 10:02:42;;;;;;;7.20;4.57;;;;;;;32.55;32.41;99613.47;5042286;28;20024;-84
2022/06/03 10:05:10;;;;;;;8.32;5.00;;;;;;;31.79;32.97;99517.41;5048944;28;20021;-84
2022/06/03 10:07:36;;;;;;;8.85;4.80;;;;;;;32.72;33.11;99694.72;5055238;28;20029;-84
2022/06/03 10:12:50;;;;;;;8.98;5.97;;;;;;;31.33;33.81;99595.13;5038360;28;20419;-84
2022/06/03 10:15:43;;;;;;;6.80;5.25;;;;;;;31.40;34.07;99632.88;5033423;28;20022;-85
2022/06/03 10:18:48;;;;;;;7.90;4.82;;;;;;;31.98;34.51;99703.66;5034101;28;20028;-84
2022/06/03 10:21:14;;;;;;;10.93;5.32;;;;;;;32.55;33.36;99703.66;5011463;28;20391;-84
2022/06/03 10:23:46;;;;;;;7.07;5.20;;;;;;;33.14;32.18;99709.50;5034947;28;20021;-83
2022/06/03 10:26:50;;;;;;;9.20;5.88;;;;;;;33.44;31.37;99683.06;5034987;28;20055;-84
2022/06/03 10:29:19;;;;;;;7.90;4.63;;;;;;;33.89;31.40;99699.88;5038800;28;20029;-85
2022/06/03 10:32:16;;;;;;;13.65;6.10;;;;;;;33.63;31.17;99702.69;5033662;28;20033;-85
2022/06/03 10:34:44;;;;;;;6.30;5.70;;;;;;;33.23;32.18;99652.03;5019859;28;20076;-84
2022/06/03 10:37:12;;;;;;;9.52;6.72;;;;;;;33.29;31.42;99604.22;5031319;28;20018;-85
2022/06/03 10:39:42;;;;;;;8.80;5.20;;;;;;;34.31;30.37;99691.78;5032179;28;20025;-84
2022/06/03 10:42:13;;;;;;;6.15;4.68;;;;;;;33.84;30.44;99603.41;5038124;28;20029;-84
2022/06/03 10:44:44;;;;;;;7.57;4.70;;;;;;;34.56;29.61;99652.44;5032435;28;20037;-84
2022/06/03 10:47:47;;;;;;;9.85;6.20;;;;;;;34.99;29.94;99686.97;5031512;28;20414;-84
2022/06/03 10:50:34;;;;;;;8.52;6.43;;;;;;;34.31;30.41;99667.13;5023862;28;20033;-84
2022/06/03 11:01:56;;;;;;;7.47;4.40;;;;;;;34.57;28.80;99582.75;5040598;28;20043;-85
2022/06/03 11:04:24;;;;;;;5.47;4.78;;;;;;;35.20;28.39;99643.81;5050105;28;20029;-83
2022/06/03 11:06:50;;;;;;;7.07;6.30;;;;;;;35.58;28.68;99660.03;5037004;28;20028;-86
2022/06/03 11:09:17;;;;;;;6.28;4.93;;;;;;;35.72;27.90;99621.28;5032103;28;20025;-86
2022/06/03 11:11:47;;;;;;;10.77;6.03;;;;;;;36.14;28.17;99654.81;5030657;28;20109;-85
2022/06/03 11:14:32;;;;;;;6.45;4.95;;;;;;;35.77;28.29;99650.47;5032124;28;20034;-85
2022/06/03 11:17:06;;;;;;;8.02;5.38;;;;;;;35.27;28.89;99651.50;5047133;28;20029;-85
2022/06/03 11:19:43;;;;;;;8.95;4.53;;;;;;;34.79;29.44;99639.16;5034340;28;20029;-85
2022/06/03 11:22:28;;;;;;;9.60;5.05;;;;;;;34.55;29.68;99645.34;5043625;28;20064;-85
2022/06/03 11:25:08;;;;;;;7.05;4.90;;;;;;;34.89;29.38;99648.94;5033013;28;20631;-85
2022/06/03 11:27:53;;;;;;;6.95;4.65;;;;;;;35.19;28.73;99658.69;5037876;28;20520;-85
2022/06/03 11:30:44;;;;;;;7.88;4.45;;;;;;;35.58;28.34;99661.97;5034870;28;20025;-84
2022/06/03 11:33:19;;;;;;;7.50;4.95;;;;;;;35.48;27.38;99593.78;5039753;28;20531;-85
2022/06/03 11:35:47;;;;;;;9.95;4.43;;;;;;;35.74;27.56;99657.44;5049882;28;20029;-85
2022/06/03 11:38:18;;;;;;;8.43;4.40;;;;;;;35.46;26.73;99585.06;5037483;28;20034;-86
2022/06/03 11:40:52;;;;;;;6.90;4.78;;;;;;;36.22;25.55;99662.13;5031497;28;20032;-84
2022/06/03 11:43:26;;;;;;;7.03;4.47;;;;;;;36.37;26.06;99637.84;5031229;28;20597;-82
2022/06/03 11:45:57;;;;;;;8.02;4.25;;;;;;;36.23;25.62;99578.50;5035797;28;20059;-85
2022/06/03 11:48:37;;;;;;;9.40;4.22;;;;;;;36.74;25.99;99649.56;5031802;28;20033;-85
2022/06/03 11:51:04;;;;;;;6.32;4.60;;;;;;;36.13;26.79;99547.97;5038699;28;20505;-85
2022/06/03 11:53:33;;;;;;;9.13;4.80;;;;;;;36.54;26.23;99594.38;5052115;28;20024;-86
2022/06/03 11:56:02;;;;;;;7.75;6.13;;;;;;;36.79;26.77;99602.56;5051181;28;20087;-83
2022/06/03 11:58:45;;;;;;;8.82;4.70;;;;;;;37.39;26.47;99641.94;5050298;28;20021;-83
2022/06/03 12:01:18;;;;;;;10.05;5.47;;;;;;;36.55;26.45;99516.22;5045514;28;20032;-84
2022/06/03 12:03:54;;;;;;;10.32;4.95;;;;;;;37.32;26.05;99633.50;5035706;28;20112;-83
2022/06/03 12:06:46;;;;;;;11.52;6.30;;;;;;;37.38;26.30;99646.66;5052144;28;20591;-85
2022/06/03 12:09:23;;;;;;;7.80;5.10;;;;;;;37.48;25.61;99648.88;5069254;28;20025;-86
2022/06/03 12:15:30;;;;;;;9.50;4.53;;;;;;;37.11;26.21;99637.25;5029718;28;20127;-83
2022/06/03 12:17:57;;;;;;;7.80;4.70;;;;;;;37.13;26.26;99636.88;5029897;28;20021;-85
2022/06/03 12:20:32;;;;;;;6.38;4.45;;;;;;;37.28;26.15;99640.88;5043993;28;20028;-85
2022/06/03 12:23:12;;;;;;;7.97;3.97;;;;;;;37.45;25.63;99643.28;5038899;28;20458;-84
2022/06/03 12:25:53;;;;;;;9.73;5.00;;;;;;;37.38;25.92;99645.84;5034137;28;20033;-84
2022/06/03 12:28:33;;;;;;;7.38;5.63;;;;;;;37.18;25.96;99598.91;5031559;28;20064;-83
2022/06/03 12:31:05;;;;;;;7.90;5.75;;;;;;;37.76;25.20;99639.75;5032978;28;20037;-85
2022/06/03 12:33:42;;;;;;;8.68;6.10;;;;;;;37.80;24.76;99638.66;5034557;28;20072;-85
2022/06/03 12:36:33;;;;;;;9.80;5.65;;;;;;;37.81;25.15;99626.47;5029206;28;20056;-85
2022/06/03 12:39:03;;;;;;;8.30;4.30;;;;;;;37.85;25.08;99632.88;5029518;28;20107;-85
2022/06/03 12:41:43;;;;;;;11.45;5.10;;;;;;;37.63;25.46;99629.94;5035426;28;20041;-85
2022/06/03 12:44:37;;;;;;;7.75;5.03;;;;;;;37.01;25.68;99592.91;5033709;28;20037;-85
2022/06/03 12:47:17;;;;;;;13.85;4.90;;;;;;;37.45;25.90;99624.78;5032364;28;20046;-85
2022/06/03 12:49:43;;;;;;;10.52;4.90;;;;;;;37.44;26.06;99625.16;5029546;28;20174;-86
2022/06/03 12:52:12;;;;;;;10.90;5.65;;;;;;;36.41;26.76;99578.25;5029132;28;20120;-85
2022/06/03 12:54:48;;;;;;;11.65;4.93;;;;;;;36.04;27.95;99594.81;5046376;28;20045;-85
2022/06/03 12:57:36;;;;;;;11.75;5.10;;;;;;;35.42;28.87;99590.47;5034683;28;20033;-86
2022/06/03 13:00:15;;;;;;;11.85;6.00;;;;;;;35.17;29.62;99649.19;5027740;28;20037;-85
2022/06/03 13:02:54;;;;;;;11.98;4.88;;;;;;;34.74;29.95;99650.34;5029653;28;20044;-85
2022/06/03 13:05:41;;;;;;;8.90;4.93;;;;;;;34.32;30.57;99644.88;5032668;28;20280;-85